sensor_id;sensor_type;location;lat;lon;timestamp;temperature;humidity
13744;DHT22;6943;52.368;9.966;2022-08-19T00:01:31;20.10;99.90
13744;DHT22;6943;52.368;9.966;2022-08-19T00:03:58;20.10;99.90
13744;DHT22;6943;52.368;9.966;2022-08-19T00:06:26;20.20;99.90
13744;DHT22;6943;52.368;9.966;2022-08-19T00:08:52;20.20;99.90
13744;DHT22;6943;52.368;9.966;2022-08-19T00:11:17;20.10;99.90
13744;DHT22;6943;52.368;9.966;2022-08-19T00:13:43;20.10;99.90
13744;DHT22;6943;52.368;9.966;2022-08-19T00:16:08;20.10;99.90
13744;DHT22;6943;52.368;9.966;2022-08-19T00:18:34;20.10;99.90
13744;DHT22;6943;52.368;9.966;2022-08-19T00:21:00;20.00;99.90
13744;DHT22;6943;52.368;9.966;2022-08-19T00:23:26;19.90;99.90
13744;DHT22;6943;52.368;9.966;2022-08-19T00:25:52;19.90;99.90
13744;DHT22;6943;52.368;9.966;2022-08-19T00:28:18;19.90;99.90
13744;DHT22;6943;52.368;9.966;2022-08-19T00:30:45;19.80;99.90
13744;DHT22;6943;52.368;9.966;2022-08-19T00:33:10;19.80;99.90
13744;DHT22;6943;52.368;9.966;2022-08-19T00:35:36;19.70;99.90
13744;DHT22;6943;52.368;9.966;2022-08-19T00:38:04;19.70;99.90
13744;DHT22;6943;52.368;9.966;2022-08-19T00:40:32;19.70;99.90
13744;DHT22;6943;52.368;9.966;2022-08-19T00:42:57;19.70;99.90
13744;DHT22;6943;52.368;9.966;2022-08-19T00:45:25;19.70;99.90
13744;DHT22;6943;52.368;9.966;2022-08-19T00:47:51;19.70;99.90
13744;DHT22;6943;52.368;9.966;2022-08-19T00:50:18;19.70;99.90
13744;DHT22;6943;52.368;9.966;2022-08-19T00:52:48;19.70;99.90
13744;DHT22;6943;52.368;9.966;2022-08-19T00:55:19;19.70;99.90
13744;DHT22;6943;52.368;9.966;2022-08-19T00:57:53;19.70;99.90
13744;DHT22;6943;52.368;9.966;2022-08-19T01:00:20;19.60;99.90
13744;DHT22;6943;52.368;9.966;2022-08-19T01:02:46;19.60;99.90
13744;DHT22;6943;52.368;9.966;2022-08-19T01:05:16;19.60;99.90
13744;DHT22;6943;52.368;9.966;2022-08-19T01:07:43;19.60;99.90
13744;DHT22;6943;52.368;9.966;2022-08-19T01:10:13;19.60;99.90
13744;DHT22;6943;52.368;9.966;2022-08-19T01:12:39;19.60;99.90
13744;DHT22;6943;52.368;9.966;2022-08-19T01:15:07;19.60;99.90
13744;DHT22;6943;52.368;9.966;2022-08-19T01:17:34;19.60;99.90
13744;DHT22;6943;52.368;9.966;2022-08-19T01:20:02;19.70;99.90
13744;DHT22;6943;52.368;9.966;2022-08-19T01:22:32;19.70;99.90
13744;DHT22;6943;52.368;9.966;2022-08-19T01:25:01;19.70;99.90
13744;DHT22;6943;52.368;9.966;2022-08-19T01:27:27;19.60;99.90
13744;DHT22;6943;52.368;9.966;2022-08-19T01:30:03;19.70;99.90
13744;DHT22;6943;52.368;9.966;2022-08-19T01:32:29;19.60;99.90
13744;DHT22;6943;52.368;9.966;2022-08-19T01:34:55;19.60;99.90
13744;DHT22;6943;52.368;9.966;2022-08-19T01:37:21;19.60;99.90
13744;DHT22;6943;52.368;9.966;2022-08-19T01:39:46;19.60;99.90
13744;DHT22;6943;52.368;9.966;2022-08-19T01:42:12;19.50;99.90
13744;DHT22;6943;52.368;9.966;2022-08-19T01:44:39;19.50;99.90
13744;DHT22;6943;52.368;9.966;2022-08-19T01:47:06;19.40;99.90
13744;DHT22;6943;52.368;9.966;2022-08-19T01:49:32;19.40;99.90
13744;DHT22;6943;52.368;9.966;2022-08-19T01:52:00;19.40;99.90
13744;DHT22;6943;52.368;9.966;2022-08-19T01:54:25;19.30;99.90
13744;DHT22;6943;52.368;9.966;2022-08-19T01:56:52;19.30;99.90
13744;DHT22;6943;52.368;9.966;2022-08-19T01:59:20;19.30;99.90
13744;DHT22;6943;52.368;9.966;2022-08-19T02:01:47;19.10;99.90
13744;DHT22;6943;52.368;9.966;2022-08-19T02:04:12;19.30;99.90
13744;DHT22;6943;52.368;9.966;2022-08-19T02:06:38;19.30;99.90
13744;DHT22;6943;52.368;9.966;2022-08-19T02:09:05;19.20;99.90
13744;DHT22;6943;52.368;9.966;2022-08-19T02:11:33;19.20;99.90
13744;DHT22;6943;52.368;9.966;2022-08-19T02:14:00;19.20;99.90
13744;DHT22;6943;52.368;9.966;2022-08-19T02:16:28;19.20;99.90
13744;DHT22;6943;52.368;9.966;2022-08-19T02:18:54;19.20;99.90
13744;DHT22;6943;52.368;9.966;2022-08-19T02:21:22;19.20;99.90
13744;DHT22;6943;52.368;9.966;2022-08-19T02:23:49;19.20;99.90
13744;DHT22;6943;52.368;9.966;2022-08-19T02:26:15;19.20;99.90
13744;DHT22;6943;52.368;9.966;2022-08-19T02:28:41;19.20;99.90
13744;DHT22;6943;52.368;9.966;2022-08-19T02:31:16;19.10;99.90
13744;DHT22;6943;52.368;9.966;2022-08-19T02:33:42;19.10;99.90
13744;DHT22;6943;52.368;9.966;2022-08-19T02:36:09;19.10;99.90
13744;DHT22;6943;52.368;9.966;2022-08-19T02:38:35;19.10;99.90
13744;DHT22;6943;52.368;9.966;2022-08-19T02:41:05;19.10;99.90
13744;DHT22;6943;52.368;9.966;2022-08-19T02:43:32;19.10;99.90
13744;DHT22;6943;52.368;9.966;2022-08-19T02:46:01;19.00;99.90
13744;DHT22;6943;52.368;9.966;2022-08-19T02:48:27;19.00;99.90
13744;DHT22;6943;52.368;9.966;2022-08-19T02:50:53;18.90;99.90
13744;DHT22;6943;52.368;9.966;2022-08-19T02:53:24;19.00;99.90
13744;DHT22;6943;52.368;9.966;2022-08-19T02:55:50;18.80;99.90
13744;DHT22;6943;52.368;9.966;2022-08-19T02:58:16;18.80;99.90
13744;DHT22;6943;52.368;9.966;2022-08-19T03:00:47;18.70;99.90
13744;DHT22;6943;52.368;9.966;2022-08-19T03:03:14;18.70;99.90
13744;DHT22;6943;52.368;9.966;2022-08-19T03:05:40;18.70;99.90
13744;DHT22;6943;52.368;9.966;2022-08-19T03:08:08;18.60;99.90
13744;DHT22;6943;52.368;9.966;2022-08-19T03:10:46;18.60;99.90
13744;DHT22;6943;52.368;9.966;2022-08-19T03:13:14;18.60;99.90
13744;DHT22;6943;52.368;9.966;2022-08-19T03:15:42;18.50;99.90
13744;DHT22;6943;52.368;9.966;2022-08-19T03:18:08;18.50;99.90
13744;DHT22;6943;52.368;9.966;2022-08-19T03:20:34;18.50;99.90
13744;DHT22;6943;52.368;9.966;2022-08-19T03:22:59;18.40;99.90
13744;DHT22;6943;52.368;9.966;2022-08-19T03:25:25;18.40;99.90
13744;DHT22;6943;52.368;9.966;2022-08-19T03:27:50;18.50;99.90
13744;DHT22;6943;52.368;9.966;2022-08-19T03:30:16;18.50;99.90
13744;DHT22;6943;52.368;9.966;2022-08-19T03:32:41;18.50;99.90
13744;DHT22;6943;52.368;9.966;2022-08-19T03:35:07;18.50;99.90
13744;DHT22;6943;52.368;9.966;2022-08-19T03:37:33;18.50;99.90
13744;DHT22;6943;52.368;9.966;2022-08-19T03:39:59;18.50;99.90
13744;DHT22;6943;52.368;9.966;2022-08-19T03:42:25;18.50;99.90
13744;DHT22;6943;52.368;9.966;2022-08-19T03:44:52;18.50;99.90
13744;DHT22;6943;52.368;9.966;2022-08-19T03:47:17;18.50;99.90
13744;DHT22;6943;52.368;9.966;2022-08-19T03:49:43;18.50;99.90
13744;DHT22;6943;52.368;9.966;2022-08-19T03:52:09;18.40;99.90
13744;DHT22;6943;52.368;9.966;2022-08-19T03:54:35;18.40;99.90
13744;DHT22;6943;52.368;9.966;2022-08-19T03:57:02;18.40;99.90
13744;DHT22;6943;52.368;9.966;2022-08-19T03:59:32;18.50;99.90
13744;DHT22;6943;52.368;9.966;2022-08-19T04:02:00;18.40;99.90
13744;DHT22;6943;52.368;9.966;2022-08-19T04:04:27;18.40;99.90
13744;DHT22;6943;52.368;9.966;2022-08-19T04:06:52;18.40;99.90
13744;DHT22;6943;52.368;9.966;2022-08-19T04:09:19;18.40;99.90
13744;DHT22;6943;52.368;9.966;2022-08-19T04:11:48;18.50;99.90
13744;DHT22;6943;52.368;9.966;2022-08-19T04:14:17;18.40;99.90
13744;DHT22;6943;52.368;9.966;2022-08-19T04:16:44;18.40;99.90
13744;DHT22;6943;52.368;9.966;2022-08-19T04:19:10;18.40;99.90
13744;DHT22;6943;52.368;9.966;2022-08-19T04:21:36;18.40;99.90
13744;DHT22;6943;52.368;9.966;2022-08-19T04:24:02;18.40;99.90
13744;DHT22;6943;52.368;9.966;2022-08-19T04:26:31;18.30;99.90
13744;DHT22;6943;52.368;9.966;2022-08-19T04:29:01;18.30;99.90
13744;DHT22;6943;52.368;9.966;2022-08-19T04:31:29;18.30;99.90
13744;DHT22;6943;52.368;9.966;2022-08-19T04:33:57;18.30;99.90
13744;DHT22;6943;52.368;9.966;2022-08-19T04:36:27;18.30;99.90
13744;DHT22;6943;52.368;9.966;2022-08-19T04:38:55;18.30;99.90
13744;DHT22;6943;52.368;9.966;2022-08-19T04:41:21;18.30;99.90
13744;DHT22;6943;52.368;9.966;2022-08-19T04:44:05;18.30;99.90
13744;DHT22;6943;52.368;9.966;2022-08-19T04:46:31;18.40;99.90
13744;DHT22;6943;52.368;9.966;2022-08-19T04:48:58;18.40;99.90
13744;DHT22;6943;52.368;9.966;2022-08-19T04:51:24;18.50;99.90
13744;DHT22;6943;52.368;9.966;2022-08-19T04:53:50;18.50;99.90
13744;DHT22;6943;52.368;9.966;2022-08-19T04:56:18;18.50;99.90
13744;DHT22;6943;52.368;9.966;2022-08-19T04:58:45;18.60;99.90
13744;DHT22;6943;52.368;9.966;2022-08-19T05:01:17;18.70;99.90
13744;DHT22;6943;52.368;9.966;2022-08-19T05:03:43;18.70;99.90
13744;DHT22;6943;52.368;9.966;2022-08-19T05:06:11;18.80;99.90
13744;DHT22;6943;52.368;9.966;2022-08-19T05:08:38;18.80;99.90
13744;DHT22;6943;52.368;9.966;2022-08-19T05:11:37;18.90;99.90
13744;DHT22;6943;52.368;9.966;2022-08-19T05:14:04;19.00;99.90
13744;DHT22;6943;52.368;9.966;2022-08-19T05:16:30;19.00;99.90
13744;DHT22;6943;52.368;9.966;2022-08-19T05:18:56;19.00;99.90
13744;DHT22;6943;52.368;9.966;2022-08-19T05:21:41;19.00;99.90
13744;DHT22;6943;52.368;9.966;2022-08-19T05:24:26;19.10;99.90
13744;DHT22;6943;52.368;9.966;2022-08-19T05:26:53;19.10;82.60
13744;DHT22;6943;52.368;9.966;2022-08-19T05:29:22;19.20;48.60
13744;DHT22;6943;52.368;9.966;2022-08-19T05:31:49;19.20;49.70
13744;DHT22;6943;52.368;9.966;2022-08-19T05:34:16;19.30;1.00
13744;DHT22;6943;52.368;9.966;2022-08-19T05:36:43;19.30;1.00
13744;DHT22;6943;52.368;9.966;2022-08-19T05:39:12;19.50;1.00
13744;DHT22;6943;52.368;9.966;2022-08-19T05:41:46;19.70;1.00
13744;DHT22;6943;52.368;9.966;2022-08-19T05:44:13;19.70;1.00
13744;DHT22;6943;52.368;9.966;2022-08-19T05:46:40;20.00;1.00
13744;DHT22;6943;52.368;9.966;2022-08-19T05:49:08;20.20;1.00
13744;DHT22;6943;52.368;9.966;2022-08-19T05:51:35;20.60;1.00
13744;DHT22;6943;52.368;9.966;2022-08-19T05:54:03;21.30;1.00
13744;DHT22;6943;52.368;9.966;2022-08-19T05:56:30;21.60;84.60
13744;DHT22;6943;52.368;9.966;2022-08-19T05:58:56;21.70;1.00
13744;DHT22;6943;52.368;9.966;2022-08-19T06:01:22;21.70;1.00
13744;DHT22;6943;52.368;9.966;2022-08-19T06:03:47;21.60;1.00
13744;DHT22;6943;52.368;9.966;2022-08-19T06:06:15;21.30;1.00
13744;DHT22;6943;52.368;9.966;2022-08-19T06:08:41;21.10;27.90
13744;DHT22;6943;52.368;9.966;2022-08-19T06:11:17;20.90;1.00
13744;DHT22;6943;52.368;9.966;2022-08-19T06:13:44;20.80;1.00
13744;DHT22;6943;52.368;9.966;2022-08-19T06:16:14;20.50;99.90
13744;DHT22;6943;52.368;9.966;2022-08-19T06:18:46;20.30;1.00
13744;DHT22;6943;52.368;9.966;2022-08-19T06:21:11;20.30;1.00
13744;DHT22;6943;52.368;9.966;2022-08-19T06:23:37;20.20;1.00
13744;DHT22;6943;52.368;9.966;2022-08-19T06:26:02;20.20;1.00
13744;DHT22;6943;52.368;9.966;2022-08-19T06:28:28;20.10;99.90
13744;DHT22;6943;52.368;9.966;2022-08-19T06:30:53;20.10;99.90
13744;DHT22;6943;52.368;9.966;2022-08-19T06:33:18;20.10;99.90
13744;DHT22;6943;52.368;9.966;2022-08-19T06:35:44;20.00;1.00
13744;DHT22;6943;52.368;9.966;2022-08-19T06:38:10;20.10;99.90
13744;DHT22;6943;52.368;9.966;2022-08-19T06:40:35;20.20;1.00
13744;DHT22;6943;52.368;9.966;2022-08-19T06:43:03;20.20;91.90
13744;DHT22;6943;52.368;9.966;2022-08-19T06:45:28;20.30;99.90
13744;DHT22;6943;52.368;9.966;2022-08-19T06:47:54;20.40;1.00
13744;DHT22;6943;52.368;9.966;2022-08-19T06:50:24;20.50;99.90
13744;DHT22;6943;52.368;9.966;2022-08-19T06:52:49;20.60;99.90
13744;DHT22;6943;52.368;9.966;2022-08-19T06:55:15;20.70;1.00
13744;DHT22;6943;52.368;9.966;2022-08-19T06:57:41;20.80;99.90
13744;DHT22;6943;52.368;9.966;2022-08-19T07:00:08;21.30;1.00
13744;DHT22;6943;52.368;9.966;2022-08-19T07:02:42;21.50;1.00
13744;DHT22;6943;52.368;9.966;2022-08-19T07:05:08;21.60;1.00
13744;DHT22;6943;52.368;9.966;2022-08-19T07:07:33;21.70;1.00
13744;DHT22;6943;52.368;9.966;2022-08-19T07:09:59;21.60;1.00
13744;DHT22;6943;52.368;9.966;2022-08-19T07:12:27;21.60;1.00
13744;DHT22;6943;52.368;9.966;2022-08-19T07:14:54;21.20;1.00
13744;DHT22;6943;52.368;9.966;2022-08-19T07:17:19;21.30;1.00
13744;DHT22;6943;52.368;9.966;2022-08-19T07:19:45;21.30;1.00
13744;DHT22;6943;52.368;9.966;2022-08-19T07:22:11;21.30;1.00
13744;DHT22;6943;52.368;9.966;2022-08-19T07:24:37;21.30;1.00
13744;DHT22;6943;52.368;9.966;2022-08-19T07:27:04;21.30;1.00
13744;DHT22;6943;52.368;9.966;2022-08-19T07:29:33;21.30;1.00
13744;DHT22;6943;52.368;9.966;2022-08-19T07:32:00;21.40;1.00
13744;DHT22;6943;52.368;9.966;2022-08-19T07:34:26;21.40;1.00
13744;DHT22;6943;52.368;9.966;2022-08-19T07:36:53;21.50;99.90
13744;DHT22;6943;52.368;9.966;2022-08-19T07:39:23;21.90;99.90
13744;DHT22;6943;52.368;9.966;2022-08-19T07:41:49;22.40;1.00
13744;DHT22;6943;52.368;9.966;2022-08-19T07:44:16;22.70;1.00
13744;DHT22;6943;52.368;9.966;2022-08-19T07:46:45;23.20;99.90
13744;DHT22;6943;52.368;9.966;2022-08-19T07:49:12;23.50;43.10
13744;DHT22;6943;52.368;9.966;2022-08-19T07:51:43;23.80;1.00
13744;DHT22;6943;52.368;9.966;2022-08-19T07:54:09;24.00;1.00
13744;DHT22;6943;52.368;9.966;2022-08-19T07:56:34;23.90;1.00
13744;DHT22;6943;52.368;9.966;2022-08-19T07:59:00;24.00;1.00
13744;DHT22;6943;52.368;9.966;2022-08-19T08:01:27;23.80;1.00
13744;DHT22;6943;52.368;9.966;2022-08-19T08:03:54;23.20;1.00
13744;DHT22;6943;52.368;9.966;2022-08-19T08:06:38;23.20;1.00
13744;DHT22;6943;52.368;9.966;2022-08-19T08:09:26;23.20;1.00
13744;DHT22;6943;52.368;9.966;2022-08-19T08:12:26;23.20;1.00
13744;DHT22;6943;52.368;9.966;2022-08-19T08:14:55;23.00;1.00
13744;DHT22;6943;52.368;9.966;2022-08-19T08:17:24;23.00;1.00
13744;DHT22;6943;52.368;9.966;2022-08-19T08:19:51;23.20;1.00
13744;DHT22;6943;52.368;9.966;2022-08-19T08:22:19;23.50;1.00
13744;DHT22;6943;52.368;9.966;2022-08-19T08:25:11;23.50;1.00
13744;DHT22;6943;52.368;9.966;2022-08-19T08:27:38;23.50;1.00
13744;DHT22;6943;52.368;9.966;2022-08-19T08:30:06;23.80;1.00
13744;DHT22;6943;52.368;9.966;2022-08-19T08:32:35;24.00;1.00
13744;DHT22;6943;52.368;9.966;2022-08-19T08:35:00;24.40;1.00
13744;DHT22;6943;52.368;9.966;2022-08-19T08:37:26;24.80;1.00
13744;DHT22;6943;52.368;9.966;2022-08-19T08:39:51;25.50;1.00
13744;DHT22;6943;52.368;9.966;2022-08-19T08:42:22;25.60;1.00
13744;DHT22;6943;52.368;9.966;2022-08-19T08:44:58;25.70;1.00
13744;DHT22;6943;52.368;9.966;2022-08-19T08:47:25;26.30;1.00
13744;DHT22;6943;52.368;9.966;2022-08-19T08:50:00;26.60;99.90
13744;DHT22;6943;52.368;9.966;2022-08-19T08:52:30;27.50;99.90
13744;DHT22;6943;52.368;9.966;2022-08-19T08:55:04;27.40;99.90
13744;DHT22;6943;52.368;9.966;2022-08-19T08:57:39;26.20;99.90
13744;DHT22;6943;52.368;9.966;2022-08-19T09:00:08;26.90;99.90
13744;DHT22;6943;52.368;9.966;2022-08-19T09:02:35;27.50;99.90
13744;DHT22;6943;52.368;9.966;2022-08-19T09:05:01;27.40;99.90
13744;DHT22;6943;52.368;9.966;2022-08-19T09:07:49;27.20;99.90
13744;DHT22;6943;52.368;9.966;2022-08-19T09:10:29;27.00;99.90
13744;DHT22;6943;52.368;9.966;2022-08-19T09:15:55;27.10;99.90
13744;DHT22;6943;52.368;9.966;2022-08-19T09:18:22;27.70;99.90
13744;DHT22;6943;52.368;9.966;2022-08-19T09:20:48;28.10;99.90
13744;DHT22;6943;52.368;9.966;2022-08-19T09:23:13;28.20;99.90
13744;DHT22;6943;52.368;9.966;2022-08-19T09:25:39;27.80;99.90
13744;DHT22;6943;52.368;9.966;2022-08-19T09:28:05;28.20;99.90
13744;DHT22;6943;52.368;9.966;2022-08-19T09:30:34;28.20;99.90
13744;DHT22;6943;52.368;9.966;2022-08-19T09:33:00;28.30;99.90
13744;DHT22;6943;52.368;9.966;2022-08-19T09:35:28;28.20;99.90
13744;DHT22;6943;52.368;9.966;2022-08-19T09:37:55;27.50;99.90
13744;DHT22;6943;52.368;9.966;2022-08-19T09:40:22;27.90;99.90
13744;DHT22;6943;52.368;9.966;2022-08-19T09:42:47;27.30;99.90
13744;DHT22;6943;52.368;9.966;2022-08-19T09:45:15;27.20;99.90
13744;DHT22;6943;52.368;9.966;2022-08-19T09:47:41;27.80;99.90
13744;DHT22;6943;52.368;9.966;2022-08-19T09:50:09;28.30;99.90
13744;DHT22;6943;52.368;9.966;2022-08-19T09:52:35;27.20;99.90
13744;DHT22;6943;52.368;9.966;2022-08-19T09:55:03;27.60;99.90
13744;DHT22;6943;52.368;9.966;2022-08-19T09:57:28;27.20;99.90
13744;DHT22;6943;52.368;9.966;2022-08-19T09:59:54;26.80;99.90
13744;DHT22;6943;52.368;9.966;2022-08-19T10:02:20;26.80;99.90
13744;DHT22;6943;52.368;9.966;2022-08-19T10:04:45;27.00;99.90
13744;DHT22;6943;52.368;9.966;2022-08-19T10:07:29;27.30;99.90
13744;DHT22;6943;52.368;9.966;2022-08-19T10:09:55;27.60;99.90
13744;DHT22;6943;52.368;9.966;2022-08-19T10:12:21;27.70;99.90
13744;DHT22;6943;52.368;9.966;2022-08-19T10:14:47;28.00;99.90
13744;DHT22;6943;52.368;9.966;2022-08-19T10:17:13;27.30;99.90
13744;DHT22;6943;52.368;9.966;2022-08-19T10:19:38;27.80;99.90
13744;DHT22;6943;52.368;9.966;2022-08-19T10:22:06;28.10;99.90
13744;DHT22;6943;52.368;9.966;2022-08-19T10:24:33;28.60;99.90
13744;DHT22;6943;52.368;9.966;2022-08-19T10:27:00;28.80;99.90
13744;DHT22;6943;52.368;9.966;2022-08-19T10:29:29;28.80;99.90
13744;DHT22;6943;52.368;9.966;2022-08-19T10:31:54;28.60;99.90
13744;DHT22;6943;52.368;9.966;2022-08-19T10:34:21;28.80;99.90
13744;DHT22;6943;52.368;9.966;2022-08-19T10:36:46;29.20;99.90
13744;DHT22;6943;52.368;9.966;2022-08-19T10:39:12;29.00;99.90
13744;DHT22;6943;52.368;9.966;2022-08-19T10:41:39;29.00;99.90
13744;DHT22;6943;52.368;9.966;2022-08-19T10:44:10;29.00;99.90
13744;DHT22;6943;52.368;9.966;2022-08-19T10:46:39;28.50;99.90
13744;DHT22;6943;52.368;9.966;2022-08-19T10:49:07;28.50;99.90
13744;DHT22;6943;52.368;9.966;2022-08-19T10:51:32;28.20;99.90
13744;DHT22;6943;52.368;9.966;2022-08-19T10:54:17;28.20;99.90
13744;DHT22;6943;52.368;9.966;2022-08-19T10:56:43;28.30;99.90
13744;DHT22;6943;52.368;9.966;2022-08-19T10:59:26;28.20;99.90
13744;DHT22;6943;52.368;9.966;2022-08-19T11:01:53;28.30;99.90
13744;DHT22;6943;52.368;9.966;2022-08-19T11:04:20;28.10;99.90
13744;DHT22;6943;52.368;9.966;2022-08-19T11:06:47;28.10;99.90
13744;DHT22;6943;52.368;9.966;2022-08-19T11:09:24;27.90;99.90
13744;DHT22;6943;52.368;9.966;2022-08-19T11:11:51;27.40;99.90
13744;DHT22;6943;52.368;9.966;2022-08-19T11:14:19;27.00;99.90
13744;DHT22;6943;52.368;9.966;2022-08-19T11:16:47;27.20;99.90
13744;DHT22;6943;52.368;9.966;2022-08-19T11:19:13;27.00;99.90
13744;DHT22;6943;52.368;9.966;2022-08-19T11:21:42;27.20;99.90
13744;DHT22;6943;52.368;9.966;2022-08-19T11:24:12;26.70;99.90
13744;DHT22;6943;52.368;9.966;2022-08-19T11:26:39;26.00;99.90
13744;DHT22;6943;52.368;9.966;2022-08-19T11:29:07;26.00;99.90
13744;DHT22;6943;52.368;9.966;2022-08-19T11:31:37;26.20;99.90
13744;DHT22;6943;52.368;9.966;2022-08-19T11:34:06;26.30;99.90
13744;DHT22;6943;52.368;9.966;2022-08-19T11:36:32;26.70;99.90
13744;DHT22;6943;52.368;9.966;2022-08-19T11:38:58;25.80;99.90
13744;DHT22;6943;52.368;9.966;2022-08-19T11:41:24;25.30;99.90
13744;DHT22;6943;52.368;9.966;2022-08-19T11:43:51;25.00;99.90
13744;DHT22;6943;52.368;9.966;2022-08-19T11:46:18;25.30;99.90
13744;DHT22;6943;52.368;9.966;2022-08-19T11:48:44;25.70;99.90
13744;DHT22;6943;52.368;9.966;2022-08-19T11:51:13;26.00;99.90
13744;DHT22;6943;52.368;9.966;2022-08-19T11:53:39;25.80;99.90
13744;DHT22;6943;52.368;9.966;2022-08-19T11:56:06;26.00;99.90
13744;DHT22;6943;52.368;9.966;2022-08-19T11:58:32;26.20;99.90
13744;DHT22;6943;52.368;9.966;2022-08-19T12:00:58;26.40;99.90
13744;DHT22;6943;52.368;9.966;2022-08-19T12:03:24;26.60;99.90
13744;DHT22;6943;52.368;9.966;2022-08-19T12:05:49;25.90;99.90
13744;DHT22;6943;52.368;9.966;2022-08-19T12:08:16;25.40;99.90
13744;DHT22;6943;52.368;9.966;2022-08-19T12:10:42;25.10;99.90
13744;DHT22;6943;52.368;9.966;2022-08-19T12:13:09;25.30;99.90
13744;DHT22;6943;52.368;9.966;2022-08-19T12:15:39;25.30;99.90
13744;DHT22;6943;52.368;9.966;2022-08-19T12:18:08;25.30;99.90
13744;DHT22;6943;52.368;9.966;2022-08-19T12:20:38;25.00;99.90
13744;DHT22;6943;52.368;9.966;2022-08-19T12:23:06;25.20;99.90
13744;DHT22;6943;52.368;9.966;2022-08-19T12:25:32;25.20;99.90
13744;DHT22;6943;52.368;9.966;2022-08-19T12:27:58;25.40;99.90
13744;DHT22;6943;52.368;9.966;2022-08-19T12:30:24;25.50;99.90
13744;DHT22;6943;52.368;9.966;2022-08-19T12:32:49;25.60;99.90
13744;DHT22;6943;52.368;9.966;2022-08-19T12:35:17;25.90;99.90
13744;DHT22;6943;52.368;9.966;2022-08-19T12:37:46;25.80;99.90
13744;DHT22;6943;52.368;9.966;2022-08-19T12:40:12;25.70;99.90
13744;DHT22;6943;52.368;9.966;2022-08-19T12:42:39;25.80;99.90
13744;DHT22;6943;52.368;9.966;2022-08-19T12:45:13;25.90;99.90
13744;DHT22;6943;52.368;9.966;2022-08-19T12:47:40;26.00;99.90
13744;DHT22;6943;52.368;9.966;2022-08-19T12:50:06;26.00;99.90
13744;DHT22;6943;52.368;9.966;2022-08-19T12:52:34;26.20;99.90
13744;DHT22;6943;52.368;9.966;2022-08-19T12:55:01;26.00;99.90
13744;DHT22;6943;52.368;9.966;2022-08-19T12:57:27;26.20;99.90
13744;DHT22;6943;52.368;9.966;2022-08-19T12:59:53;26.40;99.90
13744;DHT22;6943;52.368;9.966;2022-08-19T13:02:19;26.50;99.90
13744;DHT22;6943;52.368;9.966;2022-08-19T13:04:45;26.50;99.90
13744;DHT22;6943;52.368;9.966;2022-08-19T13:07:11;26.40;99.90
13744;DHT22;6943;52.368;9.966;2022-08-19T13:09:36;26.70;99.90
13744;DHT22;6943;52.368;9.966;2022-08-19T13:12:03;26.70;99.90
13744;DHT22;6943;52.368;9.966;2022-08-19T13:14:34;26.80;99.90
13744;DHT22;6943;52.368;9.966;2022-08-19T13:16:59;26.90;99.90
13744;DHT22;6943;52.368;9.966;2022-08-19T13:19:25;26.90;99.90
13744;DHT22;6943;52.368;9.966;2022-08-19T13:21:51;27.00;99.90
13744;DHT22;6943;52.368;9.966;2022-08-19T13:24:19;27.10;99.90
13744;DHT22;6943;52.368;9.966;2022-08-19T13:26:44;27.10;99.90
13744;DHT22;6943;52.368;9.966;2022-08-19T13:29:10;27.20;99.90
13744;DHT22;6943;52.368;9.966;2022-08-19T13:31:54;27.30;99.90
13744;DHT22;6943;52.368;9.966;2022-08-19T13:34:38;27.00;99.90
13744;DHT22;6943;52.368;9.966;2022-08-19T13:37:04;26.50;99.90
13744;DHT22;6943;52.368;9.966;2022-08-19T13:39:32;26.10;99.90
13744;DHT22;6943;52.368;9.966;2022-08-19T13:41:57;26.30;99.90
13744;DHT22;6943;52.368;9.966;2022-08-19T13:44:25;26.20;99.90
13744;DHT22;6943;52.368;9.966;2022-08-19T13:46:50;26.40;99.90
13744;DHT22;6943;52.368;9.966;2022-08-19T13:49:18;26.60;99.90
13744;DHT22;6943;52.368;9.966;2022-08-19T13:51:45;26.60;99.90
13744;DHT22;6943;52.368;9.966;2022-08-19T13:54:11;26.70;99.90
13744;DHT22;6943;52.368;9.966;2022-08-19T13:56:42;26.30;99.90
13744;DHT22;6943;52.368;9.966;2022-08-19T13:59:09;26.20;99.90
13744;DHT22;6943;52.368;9.966;2022-08-19T14:01:35;26.40;99.90
13744;DHT22;6943;52.368;9.966;2022-08-19T14:04:02;26.60;99.90
13744;DHT22;6943;52.368;9.966;2022-08-19T14:06:27;26.70;99.90
13744;DHT22;6943;52.368;9.966;2022-08-19T14:08:53;26.90;99.90
13744;DHT22;6943;52.368;9.966;2022-08-19T14:11:18;26.80;99.90
13744;DHT22;6943;52.368;9.966;2022-08-19T14:13:44;26.80;99.90
13744;DHT22;6943;52.368;9.966;2022-08-19T14:16:13;26.80;99.90
13744;DHT22;6943;52.368;9.966;2022-08-19T14:18:39;26.90;99.90
13744;DHT22;6943;52.368;9.966;2022-08-19T14:21:05;27.10;99.90
13744;DHT22;6943;52.368;9.966;2022-08-19T14:23:32;27.30;99.90
13744;DHT22;6943;52.368;9.966;2022-08-19T14:26:17;27.10;99.90
13744;DHT22;6943;52.368;9.966;2022-08-19T14:28:44;27.20;99.90
13744;DHT22;6943;52.368;9.966;2022-08-19T14:31:12;27.10;99.90
13744;DHT22;6943;52.368;9.966;2022-08-19T14:33:38;27.10;99.90
13744;DHT22;6943;52.368;9.966;2022-08-19T14:36:04;27.30;99.90
13744;DHT22;6943;52.368;9.966;2022-08-19T14:38:30;27.20;99.90
13744;DHT22;6943;52.368;9.966;2022-08-19T14:41:06;26.90;99.90
13744;DHT22;6943;52.368;9.966;2022-08-19T14:43:31;26.40;99.90
13744;DHT22;6943;52.368;9.966;2022-08-19T14:45:57;26.30;99.90
13744;DHT22;6943;52.368;9.966;2022-08-19T14:48:22;26.70;99.90
13744;DHT22;6943;52.368;9.966;2022-08-19T14:50:48;26.20;99.90
13744;DHT22;6943;52.368;9.966;2022-08-19T14:53:13;26.20;99.90
13744;DHT22;6943;52.368;9.966;2022-08-19T14:55:42;26.50;99.90
13744;DHT22;6943;52.368;9.966;2022-08-19T14:58:08;26.60;99.90
13744;DHT22;6943;52.368;9.966;2022-08-19T15:00:34;26.70;99.90
13744;DHT22;6943;52.368;9.966;2022-08-19T15:02:59;26.80;99.90
13744;DHT22;6943;52.368;9.966;2022-08-19T15:05:25;26.90;99.90
13744;DHT22;6943;52.368;9.966;2022-08-19T15:07:52;26.90;99.90
13744;DHT22;6943;52.368;9.966;2022-08-19T15:10:19;26.70;99.90
13744;DHT22;6943;52.368;9.966;2022-08-19T15:12:45;26.70;99.90
13744;DHT22;6943;52.368;9.966;2022-08-19T15:15:12;26.80;99.90
13744;DHT22;6943;52.368;9.966;2022-08-19T15:17:39;26.90;99.90
13744;DHT22;6943;52.368;9.966;2022-08-19T15:20:06;27.10;99.90
13744;DHT22;6943;52.368;9.966;2022-08-19T15:22:32;27.10;99.90
13744;DHT22;6943;52.368;9.966;2022-08-19T15:24:59;27.20;99.90
13744;DHT22;6943;52.368;9.966;2022-08-19T15:27:26;27.20;99.90
13744;DHT22;6943;52.368;9.966;2022-08-19T15:29:52;27.30;99.90
13744;DHT22;6943;52.368;9.966;2022-08-19T15:32:17;27.20;99.90
13744;DHT22;6943;52.368;9.966;2022-08-19T15:34:44;27.30;99.90
13744;DHT22;6943;52.368;9.966;2022-08-19T15:37:10;27.20;99.90
13744;DHT22;6943;52.368;9.966;2022-08-19T15:39:36;27.20;99.90
13744;DHT22;6943;52.368;9.966;2022-08-19T15:42:01;27.20;99.90
13744;DHT22;6943;52.368;9.966;2022-08-19T15:44:28;27.20;99.90
13744;DHT22;6943;52.368;9.966;2022-08-19T15:46:54;27.30;99.90
13744;DHT22;6943;52.368;9.966;2022-08-19T15:49:19;27.30;99.90
13744;DHT22;6943;52.368;9.966;2022-08-19T15:51:47;27.10;99.90
13744;DHT22;6943;52.368;9.966;2022-08-19T15:54:18;27.10;99.90